sensor_id;sensor_type;location;lat;lon;timestamp;P1;durP1;ratioP1;P2;durP2;ratioP2
66702;SDS011;60933;46.398;-63.798;2022-08-21T00:02:16;6.43;;;3.85;;
66702;SDS011;60933;46.398;-63.798;2022-08-21T00:04:44;4.38;;;3.90;;
66702;SDS011;60933;46.398;-63.798;2022-08-21T00:07:11;4.30;;;3.88;;
66702;SDS011;60933;46.398;-63.798;2022-08-21T00:09:37;4.57;;;3.83;;
66702;SDS011;60933;46.398;-63.798;2022-08-21T00:12:03;4.32;;;3.78;;
66702;SDS011;60933;46.398;-63.798;2022-08-21T00:14:30;3.72;;;3.42;;
66702;SDS011;60933;46.398;-63.798;2022-08-21T00:16:57;3.83;;;3.00;;
66702;SDS011;60933;46.398;-63.798;2022-08-21T00:19:23;3.90;;;3.50;;
66702;SDS011;60933;46.398;-63.798;2022-08-21T00:21:50;4.18;;;3.60;;
66702;SDS011;60933;46.398;-63.798;2022-08-21T00:24:19;4.13;;;3.53;;
66702;SDS011;60933;46.398;-63.798;2022-08-21T00:26:46;4.32;;;3.80;;
66702;SDS011;60933;46.398;-63.798;2022-08-21T00:29:12;5.13;;;3.30;;
66702;SDS011;60933;46.398;-63.798;2022-08-21T00:31:39;4.13;;;3.50;;
66702;SDS011;60933;46.398;-63.798;2022-08-21T00:34:06;4.45;;;3.45;;
66702;SDS011;60933;46.398;-63.798;2022-08-21T00:36:33;4.63;;;3.83;;
66702;SDS011;60933;46.398;-63.798;2022-08-21T00:38:59;5.45;;;4.07;;
66702;SDS011;60933;46.398;-63.798;2022-08-21T00:41:26;4.35;;;3.90;;
66702;SDS011;60933;46.398;-63.798;2022-08-21T00:43:53;5.70;;;3.65;;
66702;SDS011;60933;46.398;-63.798;2022-08-21T00:46:20;7.90;;;4.13;;
66702;SDS011;60933;46.398;-63.798;2022-08-21T00:48:46;4.15;;;3.75;;
66702;SDS011;60933;46.398;-63.798;2022-08-21T00:51:17;3.17;;;2.70;;
66702;SDS011;60933;46.398;-63.798;2022-08-21T00:53:54;4.68;;;3.47;;
66702;SDS011;60933;46.398;-63.798;2022-08-21T00:56:23;4.97;;;3.80;;
66702;SDS011;60933;46.398;-63.798;2022-08-21T00:58:50;4.93;;;4.03;;
66702;SDS011;60933;46.398;-63.798;2022-08-21T01:01:18;6.68;;;3.70;;
66702;SDS011;60933;46.398;-63.798;2022-08-21T01:03:45;10.05;;;4.35;;
66702;SDS011;60933;46.398;-63.798;2022-08-21T01:06:12;5.72;;;4.78;;
66702;SDS011;60933;46.398;-63.798;2022-08-21T01:08:38;5.97;;;3.60;;
66702;SDS011;60933;46.398;-63.798;2022-08-21T01:11:04;4.75;;;3.15;;
66702;SDS011;60933;46.398;-63.798;2022-08-21T01:13:32;3.55;;;3.13;;
66702;SDS011;60933;46.398;-63.798;2022-08-21T01:16:02;4.43;;;4.03;;
66702;SDS011;60933;46.398;-63.798;2022-08-21T01:18:30;4.88;;;3.20;;
66702;SDS011;60933;46.398;-63.798;2022-08-21T01:21:04;3.47;;;2.90;;
66702;SDS011;60933;46.398;-63.798;2022-08-21T01:23:37;4.00;;;3.00;;
66702;SDS011;60933;46.398;-63.798;2022-08-21T01:26:06;3.20;;;2.35;;
66702;SDS011;60933;46.398;-63.798;2022-08-21T01:28:33;3.50;;;3.05;;
66702;SDS011;60933;46.398;-63.798;2022-08-21T01:31:02;3.75;;;3.13;;
66702;SDS011;60933;46.398;-63.798;2022-08-21T01:33:31;4.00;;;3.28;;
66702;SDS011;60933;46.398;-63.798;2022-08-21T01:35:57;3.72;;;2.75;;
66702;SDS011;60933;46.398;-63.798;2022-08-21T01:38:23;5.50;;;3.05;;
66702;SDS011;60933;46.398;-63.798;2022-08-21T01:40:49;5.45;;;3.65;;
66702;SDS011;60933;46.398;-63.798;2022-08-21T01:43:15;4.00;;;2.95;;
66702;SDS011;60933;46.398;-63.798;2022-08-21T01:45:41;3.42;;;3.13;;
66702;SDS011;60933;46.398;-63.798;2022-08-21T01:48:08;4.85;;;3.42;;
66702;SDS011;60933;46.398;-63.798;2022-08-21T01:50:34;2.88;;;2.50;;
66702;SDS011;60933;46.398;-63.798;2022-08-21T01:53:00;3.47;;;3.15;;
66702;SDS011;60933;46.398;-63.798;2022-08-21T01:55:26;3.53;;;2.70;;
66702;SDS011;60933;46.398;-63.798;2022-08-21T01:57:52;3.78;;;2.78;;
66702;SDS011;60933;46.398;-63.798;2022-08-21T02:00:20;5.20;;;3.15;;
66702;SDS011;60933;46.398;-63.798;2022-08-21T02:02:48;4.00;;;3.10;;
66702;SDS011;60933;46.398;-63.798;2022-08-21T02:05:14;3.45;;;3.03;;
66702;SDS011;60933;46.398;-63.798;2022-08-21T02:07:42;3.28;;;2.97;;
66702;SDS011;60933;46.398;-63.798;2022-08-21T02:10:15;5.18;;;3.15;;
66702;SDS011;60933;46.398;-63.798;2022-08-21T02:12:53;5.53;;;4.63;;
66702;SDS011;60933;46.398;-63.798;2022-08-21T02:15:20;5.03;;;3.72;;
66702;SDS011;60933;46.398;-63.798;2022-08-21T02:17:48;4.13;;;3.20;;
66702;SDS011;60933;46.398;-63.798;2022-08-21T02:20:21;4.43;;;3.95;;
66702;SDS011;60933;46.398;-63.798;2022-08-21T02:23:08;4.22;;;3.15;;
66702;SDS011;60933;46.398;-63.798;2022-08-21T02:25:36;3.70;;;2.75;;
66702;SDS011;60933;46.398;-63.798;2022-08-21T02:28:04;5.40;;;3.20;;
66702;SDS011;60933;46.398;-63.798;2022-08-21T02:30:34;3.60;;;3.30;;
66702;SDS011;60933;46.398;-63.798;2022-08-21T02:33:04;4.72;;;3.38;;
66702;SDS011;60933;46.398;-63.798;2022-08-21T02:35:31;4.55;;;4.15;;
66702;SDS011;60933;46.398;-63.798;2022-08-21T02:37:59;4.22;;;3.83;;
66702;SDS011;60933;46.398;-63.798;2022-08-21T02:40:30;4.28;;;3.83;;
66702;SDS011;60933;46.398;-63.798;2022-08-21T02:42:59;3.95;;;3.38;;
66702;SDS011;60933;46.398;-63.798;2022-08-21T02:45:26;5.28;;;4.35;;
66702;SDS011;60933;46.398;-63.798;2022-08-21T02:47:55;6.38;;;4.30;;
66702;SDS011;60933;46.398;-63.798;2022-08-21T02:50:28;4.82;;;3.58;;
66702;SDS011;60933;46.398;-63.798;2022-08-21T02:52:58;3.42;;;3.08;;
66702;SDS011;60933;46.398;-63.798;2022-08-21T02:55:27;5.00;;;4.32;;
66702;SDS011;60933;46.398;-63.798;2022-08-21T02:57:55;5.60;;;4.03;;
66702;SDS011;60933;46.398;-63.798;2022-08-21T03:00:23;5.03;;;3.20;;
66702;SDS011;60933;46.398;-63.798;2022-08-21T03:02:51;4.43;;;3.83;;
66702;SDS011;60933;46.398;-63.798;2022-08-21T03:05:18;4.63;;;3.50;;
66702;SDS011;60933;46.398;-63.798;2022-08-21T03:07:45;6.53;;;3.50;;
66702;SDS011;60933;46.398;-63.798;2022-08-21T03:10:12;6.10;;;3.88;;
66702;SDS011;60933;46.398;-63.798;2022-08-21T03:12:39;4.47;;;3.25;;
66702;SDS011;60933;46.398;-63.798;2022-08-21T03:15:06;4.43;;;3.53;;
66702;SDS011;60933;46.398;-63.798;2022-08-21T03:17:34;3.83;;;3.42;;
66702;SDS011;60933;46.398;-63.798;2022-08-21T03:20:01;3.88;;;3.35;;
66702;SDS011;60933;46.398;-63.798;2022-08-21T03:22:28;3.45;;;3.15;;
66702;SDS011;60933;46.398;-63.798;2022-08-21T03:24:54;5.50;;;3.80;;
66702;SDS011;60933;46.398;-63.798;2022-08-21T03:27:20;5.28;;;4.13;;
66702;SDS011;60933;46.398;-63.798;2022-08-21T03:29:46;3.90;;;3.50;;
66702;SDS011;60933;46.398;-63.798;2022-08-21T03:32:12;4.85;;;3.60;;
66702;SDS011;60933;46.398;-63.798;2022-08-21T03:34:38;6.35;;;4.43;;
66702;SDS011;60933;46.398;-63.798;2022-08-21T03:37:06;6.72;;;3.85;;
66702;SDS011;60933;46.398;-63.798;2022-08-21T03:39:33;6.00;;;4.40;;
66702;SDS011;60933;46.398;-63.798;2022-08-21T03:42:00;5.97;;;4.38;;
66702;SDS011;60933;46.398;-63.798;2022-08-21T03:44:26;5.57;;;4.22;;
66702;SDS011;60933;46.398;-63.798;2022-08-21T03:46:56;4.05;;;3.53;;
66702;SDS011;60933;46.398;-63.798;2022-08-21T03:49:23;4.68;;;3.65;;
66702;SDS011;60933;46.398;-63.798;2022-08-21T03:51:50;6.85;;;4.00;;
66702;SDS011;60933;46.398;-63.798;2022-08-21T03:54:16;7.13;;;4.68;;
66702;SDS011;60933;46.398;-63.798;2022-08-21T03:56:43;6.57;;;4.47;;
66702;SDS011;60933;46.398;-63.798;2022-08-21T03:59:09;6.05;;;5.45;;
66702;SDS011;60933;46.398;-63.798;2022-08-21T04:01:35;6.28;;;4.90;;
66702;SDS011;60933;46.398;-63.798;2022-08-21T04:04:02;6.40;;;4.53;;
66702;SDS011;60933;46.398;-63.798;2022-08-21T04:06:29;7.65;;;3.85;;
66702;SDS011;60933;46.398;-63.798;2022-08-21T04:08:55;7.47;;;4.05;;
66702;SDS011;60933;46.398;-63.798;2022-08-21T04:11:21;5.50;;;4.40;;
66702;SDS011;60933;46.398;-63.798;2022-08-21T04:13:48;6.28;;;4.55;;
66702;SDS011;60933;46.398;-63.798;2022-08-21T04:16:14;5.47;;;4.53;;
66702;SDS011;60933;46.398;-63.798;2022-08-21T04:18:40;4.72;;;3.78;;
66702;SDS011;60933;46.398;-63.798;2022-08-21T04:21:07;5.70;;;4.10;;
66702;SDS011;60933;46.398;-63.798;2022-08-21T04:23:36;4.55;;;3.70;;
66702;SDS011;60933;46.398;-63.798;2022-08-21T04:26:02;5.70;;;5.03;;
66702;SDS011;60933;46.398;-63.798;2022-08-21T04:28:28;5.13;;;4.15;;
66702;SDS011;60933;46.398;-63.798;2022-08-21T04:30:54;4.75;;;3.95;;
66702;SDS011;60933;46.398;-63.798;2022-08-21T04:33:21;6.07;;;3.95;;
66702;SDS011;60933;46.398;-63.798;2022-08-21T04:35:48;4.97;;;3.80;;
66702;SDS011;60933;46.398;-63.798;2022-08-21T04:38:15;5.07;;;4.38;;
66702;SDS011;60933;46.398;-63.798;2022-08-21T04:40:42;3.70;;;3.17;;
66702;SDS011;60933;46.398;-63.798;2022-08-21T04:43:09;6.82;;;3.97;;
66702;SDS011;60933;46.398;-63.798;2022-08-21T04:45:37;5.10;;;4.50;;
66702;SDS011;60933;46.398;-63.798;2022-08-21T04:48:08;5.78;;;4.75;;
66702;SDS011;60933;46.398;-63.798;2022-08-21T04:50:37;5.43;;;4.32;;
66702;SDS011;60933;46.398;-63.798;2022-08-21T04:53:07;6.13;;;5.25;;
66702;SDS011;60933;46.398;-63.798;2022-08-21T04:55:38;7.10;;;4.13;;
66702;SDS011;60933;46.398;-63.798;2022-08-21T04:58:05;4.80;;;3.63;;
66702;SDS011;60933;46.398;-63.798;2022-08-21T05:00:35;5.80;;;4.18;;
66702;SDS011;60933;46.398;-63.798;2022-08-21T05:03:02;5.15;;;4.00;;
66702;SDS011;60933;46.398;-63.798;2022-08-21T05:05:31;5.60;;;4.45;;
66702;SDS011;60933;46.398;-63.798;2022-08-21T05:07:59;5.43;;;4.35;;
66702;SDS011;60933;46.398;-63.798;2022-08-21T05:10:27;5.22;;;4.18;;
66702;SDS011;60933;46.398;-63.798;2022-08-21T05:12:54;5.45;;;4.25;;
66702;SDS011;60933;46.398;-63.798;2022-08-21T05:15:21;5.32;;;4.40;;
66702;SDS011;60933;46.398;-63.798;2022-08-21T05:17:47;6.80;;;4.63;;
66702;SDS011;60933;46.398;-63.798;2022-08-21T05:20:13;5.82;;;4.70;;
66702;SDS011;60933;46.398;-63.798;2022-08-21T05:22:40;5.13;;;4.20;;
66702;SDS011;60933;46.398;-63.798;2022-08-21T05:25:07;5.32;;;4.35;;
66702;SDS011;60933;46.398;-63.798;2022-08-21T05:27:34;6.47;;;4.40;;
66702;SDS011;60933;46.398;-63.798;2022-08-21T05:30:00;5.78;;;4.18;;
66702;SDS011;60933;46.398;-63.798;2022-08-21T05:32:26;5.88;;;4.40;;
66702;SDS011;60933;46.398;-63.798;2022-08-21T05:34:53;5.07;;;4.07;;
66702;SDS011;60933;46.398;-63.798;2022-08-21T05:37:20;4.85;;;4.13;;
66702;SDS011;60933;46.398;-63.798;2022-08-21T05:39:46;4.63;;;3.83;;
66702;SDS011;60933;46.398;-63.798;2022-08-21T05:42:12;6.38;;;4.13;;
66702;SDS011;60933;46.398;-63.798;2022-08-21T05:44:38;4.93;;;3.60;;
66702;SDS011;60933;46.398;-63.798;2022-08-21T05:47:08;5.93;;;4.28;;
66702;SDS011;60933;46.398;-63.798;2022-08-21T05:49:35;7.93;;;3.92;;
66702;SDS011;60933;46.398;-63.798;2022-08-21T05:52:02;4.30;;;3.50;;
66702;SDS011;60933;46.398;-63.798;2022-08-21T05:54:29;4.50;;;4.10;;
66702;SDS011;60933;46.398;-63.798;2022-08-21T05:56:55;5.57;;;4.50;;
66702;SDS011;60933;46.398;-63.798;2022-08-21T05:59:22;5.63;;;4.10;;
66702;SDS011;60933;46.398;-63.798;2022-08-21T06:01:48;5.38;;;4.13;;
66702;SDS011;60933;46.398;-63.798;2022-08-21T06:04:17;5.15;;;4.15;;
66702;SDS011;60933;46.398;-63.798;2022-08-21T06:06:44;5.22;;;3.92;;
66702;SDS011;60933;46.398;-63.798;2022-08-21T06:09:11;4.72;;;3.50;;
66702;SDS011;60933;46.398;-63.798;2022-08-21T06:11:37;4.45;;;3.70;;
66702;SDS011;60933;46.398;-63.798;2022-08-21T06:14:03;6.22;;;4.35;;
66702;SDS011;60933;46.398;-63.798;2022-08-21T06:16:31;4.63;;;4.03;;
66702;SDS011;60933;46.398;-63.798;2022-08-21T06:18:57;6.05;;;4.38;;
66702;SDS011;60933;46.398;-63.798;2022-08-21T06:21:23;6.45;;;4.68;;
66702;SDS011;60933;46.398;-63.798;2022-08-21T06:23:50;7.60;;;4.97;;
66702;SDS011;60933;46.398;-63.798;2022-08-21T06:26:16;6.53;;;4.50;;
66702;SDS011;60933;46.398;-63.798;2022-08-21T06:28:42;6.18;;;5.30;;
66702;SDS011;60933;46.398;-63.798;2022-08-21T06:31:15;5.53;;;3.97;;
66702;SDS011;60933;46.398;-63.798;2022-08-21T06:33:43;5.30;;;4.35;;
66702;SDS011;60933;46.398;-63.798;2022-08-21T06:36:09;5.05;;;3.63;;
66702;SDS011;60933;46.398;-63.798;2022-08-21T06:38:36;5.43;;;4.53;;
66702;SDS011;60933;46.398;-63.798;2022-08-21T06:41:03;6.22;;;4.63;;
66702;SDS011;60933;46.398;-63.798;2022-08-21T06:43:29;5.35;;;4.43;;
66702;SDS011;60933;46.398;-63.798;2022-08-21T06:45:55;6.13;;;5.20;;
66702;SDS011;60933;46.398;-63.798;2022-08-21T06:48:22;4.63;;;4.13;;
66702;SDS011;60933;46.398;-63.798;2022-08-21T06:50:48;5.75;;;4.40;;
66702;SDS011;60933;46.398;-63.798;2022-08-21T06:53:17;5.68;;;4.53;;
66702;SDS011;60933;46.398;-63.798;2022-08-21T06:55:45;8.20;;;5.57;;
66702;SDS011;60933;46.398;-63.798;2022-08-21T06:58:12;6.18;;;5.10;;
66702;SDS011;60933;46.398;-63.798;2022-08-21T07:00:39;6.00;;;4.47;;
66702;SDS011;60933;46.398;-63.798;2022-08-21T07:03:06;4.60;;;4.05;;
66702;SDS011;60933;46.398;-63.798;2022-08-21T07:05:32;5.70;;;3.97;;
66702;SDS011;60933;46.398;-63.798;2022-08-21T07:07:59;5.07;;;4.18;;
66702;SDS011;60933;46.398;-63.798;2022-08-21T07:10:25;7.55;;;5.07;;
66702;SDS011;60933;46.398;-63.798;2022-08-21T07:12:52;6.90;;;4.15;;
66702;SDS011;60933;46.398;-63.798;2022-08-21T07:15:20;5.47;;;4.80;;
66702;SDS011;60933;46.398;-63.798;2022-08-21T07:17:46;5.63;;;4.47;;
66702;SDS011;60933;46.398;-63.798;2022-08-21T07:20:12;8.10;;;4.25;;
66702;SDS011;60933;46.398;-63.798;2022-08-21T07:22:38;4.95;;;4.05;;
66702;SDS011;60933;46.398;-63.798;2022-08-21T07:25:06;4.57;;;4.18;;
66702;SDS011;60933;46.398;-63.798;2022-08-21T07:27:32;5.05;;;3.92;;
66702;SDS011;60933;46.398;-63.798;2022-08-21T07:29:58;5.47;;;4.88;;
66702;SDS011;60933;46.398;-63.798;2022-08-21T07:32:25;5.38;;;4.10;;
66702;SDS011;60933;46.398;-63.798;2022-08-21T07:34:51;5.53;;;4.95;;
66702;SDS011;60933;46.398;-63.798;2022-08-21T07:37:17;6.15;;;4.60;;
66702;SDS011;60933;46.398;-63.798;2022-08-21T07:39:43;5.00;;;4.40;;
66702;SDS011;60933;46.398;-63.798;2022-08-21T07:42:09;5.25;;;4.32;;
66702;SDS011;60933;46.398;-63.798;2022-08-21T07:44:35;7.25;;;5.13;;
66702;SDS011;60933;46.398;-63.798;2022-08-21T07:47:01;4.93;;;4.22;;
66702;SDS011;60933;46.398;-63.798;2022-08-21T07:49:28;6.68;;;4.35;;
66702;SDS011;60933;46.398;-63.798;2022-08-21T07:51:54;5.95;;;5.40;;
66702;SDS011;60933;46.398;-63.798;2022-08-21T07:54:21;5.97;;;4.65;;
66702;SDS011;60933;46.398;-63.798;2022-08-21T07:56:47;5.20;;;4.53;;
66702;SDS011;60933;46.398;-63.798;2022-08-21T07:59:13;6.22;;;5.20;;
66702;SDS011;60933;46.398;-63.798;2022-08-21T08:01:39;7.32;;;5.00;;
66702;SDS011;60933;46.398;-63.798;2022-08-21T08:04:05;6.00;;;4.63;;
66702;SDS011;60933;46.398;-63.798;2022-08-21T08:06:31;6.68;;;4.25;;
66702;SDS011;60933;46.398;-63.798;2022-08-21T08:08:58;6.20;;;4.80;;
66702;SDS011;60933;46.398;-63.798;2022-08-21T08:11:24;8.30;;;4.88;;
66702;SDS011;60933;46.398;-63.798;2022-08-21T08:13:50;5.00;;;4.13;;
66702;SDS011;60933;46.398;-63.798;2022-08-21T08:16:17;6.15;;;4.60;;
66702;SDS011;60933;46.398;-63.798;2022-08-21T08:18:44;6.25;;;4.65;;
66702;SDS011;60933;46.398;-63.798;2022-08-21T08:21:11;6.30;;;5.50;;
66702;SDS011;60933;46.398;-63.798;2022-08-21T08:23:38;5.60;;;4.50;;
66702;SDS011;60933;46.398;-63.798;2022-08-21T08:26:04;5.97;;;4.40;;
66702;SDS011;60933;46.398;-63.798;2022-08-21T08:28:31;5.13;;;4.35;;
66702;SDS011;60933;46.398;-63.798;2022-08-21T08:30:58;5.18;;;4.13;;
66702;SDS011;60933;46.398;-63.798;2022-08-21T08:33:25;6.18;;;4.60;;
66702;SDS011;60933;46.398;-63.798;2022-08-21T08:35:52;6.18;;;4.88;;
66702;SDS011;60933;46.398;-63.798;2022-08-21T08:38:20;7.43;;;5.60;;
66702;SDS011;60933;46.398;-63.798;2022-08-21T08:43:32;5.95;;;4.70;;
66702;SDS011;60933;46.398;-63.798;2022-08-21T08:46:03;4.90;;;4.40;;
66702;SDS011;60933;46.398;-63.798;2022-08-21T08:48:44;5.10;;;4.35;;
66702;SDS011;60933;46.398;-63.798;2022-08-21T08:51:51;7.03;;;5.30;;
66702;SDS011;60933;46.398;-63.798;2022-08-21T08:54:19;5.72;;;4.90;;
66702;SDS011;60933;46.398;-63.798;2022-08-21T08:56:57;5.95;;;4.88;;
66702;SDS011;60933;46.398;-63.798;2022-08-21T08:59:42;7.10;;;5.25;;
66702;SDS011;60933;46.398;-63.798;2022-08-21T09:02:12;6.35;;;5.07;;
66702;SDS011;60933;46.398;-63.798;2022-08-21T09:04:40;6.35;;;4.60;;
66702;SDS011;60933;46.398;-63.798;2022-08-21T09:20:17;5.68;;;4.38;;
66702;SDS011;60933;46.398;-63.798;2022-08-21T09:22:50;6.03;;;4.53;;
66702;SDS011;60933;46.398;-63.798;2022-08-21T09:25:49;5.07;;;4.18;;
66702;SDS011;60933;46.398;-63.798;2022-08-21T09:28:26;4.88;;;4.38;;
66702;SDS011;60933;46.398;-63.798;2022-08-21T09:30:57;6.10;;;4.72;;
66702;SDS011;60933;46.398;-63.798;2022-08-21T09:33:27;6.45;;;4.78;;
66702;SDS011;60933;46.398;-63.798;2022-08-21T09:35:55;5.00;;;4.28;;
66702;SDS011;60933;46.398;-63.798;2022-08-21T09:38:35;5.57;;;4.72;;
66702;SDS011;60933;46.398;-63.798;2022-08-21T09:41:07;6.47;;;4.60;;
66702;SDS011;60933;46.398;-63.798;2022-08-21T09:43:35;7.75;;;4.65;;
66702;SDS011;60933;46.398;-63.798;2022-08-21T09:46:04;5.72;;;4.95;;
66702;SDS011;60933;46.398;-63.798;2022-08-21T09:48:42;5.15;;;4.20;;
66702;SDS011;60933;46.398;-63.798;2022-08-21T09:51:13;7.03;;;5.28;;
66702;SDS011;60933;46.398;-63.798;2022-08-21T09:56:26;5.38;;;4.60;;
66702;SDS011;60933;46.398;-63.798;2022-08-21T09:59:24;6.40;;;4.63;;
66702;SDS011;60933;46.398;-63.798;2022-08-21T10:01:57;5.40;;;4.25;;
66702;SDS011;60933;46.398;-63.798;2022-08-21T10:04:31;5.47;;;4.88;;
66702;SDS011;60933;46.398;-63.798;2022-08-21T10:07:08;7.03;;;5.90;;
66702;SDS011;60933;46.398;-63.798;2022-08-21T10:09:35;5.90;;;4.55;;
66702;SDS011;60933;46.398;-63.798;2022-08-21T10:12:21;4.97;;;4.10;;
66702;SDS011;60933;46.398;-63.798;2022-08-21T10:15:07;6.07;;;4.75;;
66702;SDS011;60933;46.398;-63.798;2022-08-21T10:17:49;7.53;;;4.60;;
66702;SDS011;60933;46.398;-63.798;2022-08-21T10:35:28;6.78;;;5.72;;
66702;SDS011;60933;46.398;-63.798;2022-08-21T10:38:09;7.30;;;4.82;;
66702;SDS011;60933;46.398;-63.798;2022-08-21T10:41:04;6.18;;;5.10;;
66702;SDS011;60933;46.398;-63.798;2022-08-21T10:43:59;7.32;;;5.40;;
66702;SDS011;60933;46.398;-63.798;2022-08-21T10:49:35;5.85;;;5.03;;
66702;SDS011;60933;46.398;-63.798;2022-08-21T10:52:32;6.65;;;5.53;;
66702;SDS011;60933;46.398;-63.798;2022-08-21T10:55:27;5.93;;;4.78;;
66702;SDS011;60933;46.398;-63.798;2022-08-21T10:58:19;5.55;;;4.50;;
66702;SDS011;60933;46.398;-63.798;2022-08-21T11:00:52;7.35;;;5.20;;
66702;SDS011;60933;46.398;-63.798;2022-08-21T11:03:29;6.75;;;5.38;;
66702;SDS011;60933;46.398;-63.798;2022-08-21T11:06:09;6.70;;;5.90;;
66702;SDS011;60933;46.398;-63.798;2022-08-21T11:08:44;6.45;;;4.88;;
66702;SDS011;60933;46.398;-63.798;2022-08-21T11:11:24;7.57;;;5.03;;
66702;SDS011;60933;46.398;-63.798;2022-08-21T11:13:56;6.57;;;5.05;;
66702;SDS011;60933;46.398;-63.798;2022-08-21T11:16:42;9.35;;;6.00;;
66702;SDS011;60933;46.398;-63.798;2022-08-21T11:19:34;7.40;;;4.80;;
66702;SDS011;60933;46.398;-63.798;2022-08-21T11:25:26;6.68;;;5.95;;
66702;SDS011;60933;46.398;-63.798;2022-08-21T11:28:01;6.03;;;5.07;;
66702;SDS011;60933;46.398;-63.798;2022-08-21T11:30:57;5.95;;;4.70;;
66702;SDS011;60933;46.398;-63.798;2022-08-21T11:33:52;7.00;;;5.25;;
66702;SDS011;60933;46.398;-63.798;2022-08-21T11:39:25;6.65;;;4.85;;
66702;SDS011;60933;46.398;-63.798;2022-08-21T11:50:38;7.30;;;5.03;;
66702;SDS011;60933;46.398;-63.798;2022-08-21T11:53:28;5.68;;;4.75;;
66702;SDS011;60933;46.398;-63.798;2022-08-21T11:56:05;7.30;;;5.50;;
66702;SDS011;60933;46.398;-63.798;2022-08-21T11:58:43;5.70;;;5.00;;
66702;SDS011;60933;46.398;-63.798;2022-08-21T12:01:22;7.65;;;6.72;;
66702;SDS011;60933;46.398;-63.798;2022-08-21T12:04:03;6.25;;;5.50;;
66702;SDS011;60933;46.398;-63.798;2022-08-21T12:12:12;6.35;;;5.00;;
66702;SDS011;60933;46.398;-63.798;2022-08-21T12:14:49;6.25;;;4.63;;
66702;SDS011;60933;46.398;-63.798;2022-08-21T12:17:21;5.97;;;4.63;;
66702;SDS011;60933;46.398;-63.798;2022-08-21T12:19:58;6.72;;;5.43;;
66702;SDS011;60933;46.398;-63.798;2022-08-21T12:22:38;5.97;;;4.53;;
66702;SDS011;60933;46.398;-63.798;2022-08-21T12:25:07;6.38;;;5.43;;
66702;SDS011;60933;46.398;-63.798;2022-08-21T12:27:47;6.18;;;5.50;;
66702;SDS011;60933;46.398;-63.798;2022-08-21T12:32:57;8.02;;;5.40;;
66702;SDS011;60933;46.398;-63.798;2022-08-21T12:35:27;8.95;;;6.13;;
66702;SDS011;60933;46.398;-63.798;2022-08-21T12:40:57;6.13;;;5.53;;
66702;SDS011;60933;46.398;-63.798;2022-08-21T12:45:59;5.35;;;4.85;;
66702;SDS011;60933;46.398;-63.798;2022-08-21T12:51:23;6.53;;;5.00;;
66702;SDS011;60933;46.398;-63.798;2022-08-21T12:53:55;5.47;;;4.97;;
66702;SDS011;60933;46.398;-63.798;2022-08-21T12:56:24;6.63;;;5.22;;
66702;SDS011;60933;46.398;-63.798;2022-08-21T13:01:32;5.82;;;5.18;;
66702;SDS011;60933;46.398;-63.798;2022-08-21T13:04:08;7.07;;;5.93;;
66702;SDS011;60933;46.398;-63.798;2022-08-21T13:06:39;6.15;;;4.95;;
66702;SDS011;60933;46.398;-63.798;2022-08-21T13:09:10;6.50;;;5.63;;
66702;SDS011;60933;46.398;-63.798;2022-08-21T13:11:41;6.65;;;5.47;;
66702;SDS011;60933;46.398;-63.798;2022-08-21T13:14:23;7.20;;;5.65;;
66702;SDS011;60933;46.398;-63.798;2022-08-21T13:16:59;6.78;;;4.95;;
66702;SDS011;60933;46.398;-63.798;2022-08-21T13:19:28;6.78;;;5.78;;
66702;SDS011;60933;46.398;-63.798;2022-08-21T13:21:55;6.43;;;5.40;;
66702;SDS011;60933;46.398;-63.798;2022-08-21T13:24:25;7.03;;;5.90;;
66702;SDS011;60933;46.398;-63.798;2022-08-21T13:26:56;7.43;;;6.05;;
66702;SDS011;60933;46.398;-63.798;2022-08-21T13:29:26;6.13;;;5.53;;
66702;SDS011;60933;46.398;-63.798;2022-08-21T13:31:58;8.63;;;6.30;;
66702;SDS011;60933;46.398;-63.798;2022-08-21T13:34:30;6.53;;;5.82;;
66702;SDS011;60933;46.398;-63.798;2022-08-21T13:36:59;6.63;;;6.03;;
66702;SDS011;60933;46.398;-63.798;2022-08-21T13:39:29;6.65;;;5.68;;
66702;SDS011;60933;46.398;-63.798;2022-08-21T13:41:57;6.55;;;5.22;;
66702;SDS011;60933;46.398;-63.798;2022-08-21T13:47:00;6.90;;;6.22;;
66702;SDS011;60933;46.398;-63.798;2022-08-21T13:49:30;5.88;;;5.28;;
66702;SDS011;60933;46.398;-63.798;2022-08-21T13:51:59;5.93;;;5.32;;
66702;SDS011;60933;46.398;-63.798;2022-08-21T13:54:39;8.23;;;5.75;;
66702;SDS011;60933;46.398;-63.798;2022-08-21T13:57:16;7.07;;;6.30;;
66702;SDS011;60933;46.398;-63.798;2022-08-21T13:59:43;7.28;;;6.68;;
66702;SDS011;60933;46.398;-63.798;2022-08-21T14:02:13;6.63;;;5.38;;
66702;SDS011;60933;46.398;-63.798;2022-08-21T14:07:20;7.15;;;6.18;;
66702;SDS011;60933;46.398;-63.798;2022-08-21T14:09:51;7.95;;;7.25;;
66702;SDS011;60933;46.398;-63.798;2022-08-21T14:12:25;6.22;;;5.63;;
66702;SDS011;60933;46.398;-63.798;2022-08-21T14:14:55;5.90;;;5.30;;
66702;SDS011;60933;46.398;-63.798;2022-08-21T14:17:29;6.47;;;5.78;;
66702;SDS011;60933;46.398;-63.798;2022-08-21T14:19:58;6.85;;;6.15;;
66702;SDS011;60933;46.398;-63.798;2022-08-21T14:25:03;6.43;;;5.82;;
66702;SDS011;60933;46.398;-63.798;2022-08-21T14:28:11;6.30;;;5.60;;
66702;SDS011;60933;46.398;-63.798;2022-08-21T14:30:44;7.43;;;6.63;;
66702;SDS011;60933;46.398;-63.798;2022-08-21T14:33:11;7.25;;;5.60;;
66702;SDS011;60933;46.398;-63.798;2022-08-21T14:35:48;6.80;;;5.80;;
66702;SDS011;60933;46.398;-63.798;2022-08-21T14:38:15;7.75;;;6.38;;
66702;SDS011;60933;46.398;-63.798;2022-08-21T14:40:44;8.02;;;6.38;;
66702;SDS011;60933;46.398;-63.798;2022-08-21T14:43:15;7.25;;;6.53;;
66702;SDS011;60933;46.398;-63.798;2022-08-21T14:45:43;6.95;;;6.32;;
66702;SDS011;60933;46.398;-63.798;2022-08-21T14:48:09;6.80;;;6.10;;
66702;SDS011;60933;46.398;-63.798;2022-08-21T14:50:35;8.23;;;6.70;;
66702;SDS011;60933;46.398;-63.798;2022-08-21T14:53:02;7.38;;;6.28;;
66702;SDS011;60933;46.398;-63.798;2022-08-21T14:55:29;5.25;;;4.72;;
66702;SDS011;60933;46.398;-63.798;2022-08-21T14:58:17;7.45;;;6.57;;
66702;SDS011;60933;46.398;-63.798;2022-08-21T15:00:43;7.65;;;6.95;;
66702;SDS011;60933;46.398;-63.798;2022-08-21T15:03:09;7.00;;;6.30;;
66702;SDS011;60933;46.398;-63.798;2022-08-21T15:05:35;6.90;;;6.13;;
66702;SDS011;60933;46.398;-63.798;2022-08-21T15:08:01;6.10;;;5.53;;
66702;SDS011;60933;46.398;-63.798;2022-08-21T15:10:30;7.35;;;6.65;;
66702;SDS011;60933;46.398;-63.798;2022-08-21T15:12:58;6.13;;;5.53;;
66702;SDS011;60933;46.398;-63.798;2022-08-21T15:15:24;6.85;;;6.00;;
66702;SDS011;60933;46.398;-63.798;2022-08-21T15:17:50;6.10;;;5.50;;
66702;SDS011;60933;46.398;-63.798;2022-08-21T15:20:16;6.38;;;5.78;;
66702;SDS011;60933;46.398;-63.798;2022-08-21T15:22:42;5.97;;;5.40;;
66702;SDS011;60933;46.398;-63.798;2022-08-21T15:25:09;6.97;;;5.78;;
66702;SDS011;60933;46.398;-63.798;2022-08-21T15:27:35;6.72;;;6.13;;
66702;SDS011;60933;46.398;-63.798;2022-08-21T15:30:02;6.22;;;5.63;;
66702;SDS011;60933;46.398;-63.798;2022-08-21T15:32:29;6.25;;;5.65;;
66702;SDS011;60933;46.398;-63.798;2022-08-21T15:34:56;6.28;;;5.50;;
66702;SDS011;60933;46.398;-63.798;2022-08-21T15:37:23;6.07;;;5.47;;
66702;SDS011;60933;46.398;-63.798;2022-08-21T15:39:51;6.80;;;6.15;;
66702;SDS011;60933;46.398;-63.798;2022-08-21T15:42:18;6.13;;;5.47;;
66702;SDS011;60933;46.398;-63.798;2022-08-21T15:44:44;7.50;;;6.80;;
66702;SDS011;60933;46.398;-63.798;2022-08-21T15:47:17;6.70;;;6.10;;
66702;SDS011;60933;46.398;-63.798;2022-08-21T15:49:46;6.68;;;6.07;;
66702;SDS011;60933;46.398;-63.798;2022-08-21T15:52:12;6.28;;;5.40;;
66702;SDS011;60933;46.398;-63.798;2022-08-21T15:54:42;6.95;;;6.13;;
66702;SDS011;60933;46.398;-63.798;2022-08-21T15:57:09;6.40;;;5.82;;